Unlu-5 — TCON5 — position and weather

sailwx.info

Track history (hours):
 
Tides and Currents Weather Stations Pressure Air Temp Water Temp Dewpoint Dewpoint Depression Visibility Wind Speed Wind Dir Waves Ship Positions

Unlu-5

Last reported at 2015-Apr-18 10:11 UTC. Time now 2015-Apr-21 02:54 UTC.
Position N 32°41' E 014°15'.

Length 99 m; draft 6.5 m.

Type: Cargo ship. MMSI: 271000854.

Date/timePositionNaut miles runAvg speedWind from/ knotsBaromVisibWave heightAir tempDewpointWater temp
2015-Apr-18 10:11N 32°41' E 014°15'0 0.0
2015-Apr-18 09:26N 32°41' E 014°15'4 0.1
2015-Apr-16 19:10N 32°42' E 014°20'95 6.5
2015-Apr-16 04:29N 33°22' E 016°03'  
2015-Apr-13 23:20N 36°29' E 023°29'16 7.4
2015-Apr-13 21:11N 36°42' E 023°40'5 7.6
2015-Apr-13 20:33N 36°46' E 023°43'8 7.5
2015-Apr-13 19:33N 36°52' E 023°48'  
2015-Apr-10 09:21N 40°46' E 029°36'6 6.7
2015-Apr-10 08:31N 40°45' E 029°28'6 6.7
2015-Apr-10 07:33N 40°45' E 029°20'8 8.0
2015-Apr-10 06:33N 40°50' E 029°11'3 2.6
2015-Apr-10 05:31N 40°52' E 029°11'0 0.0
2015-Apr-10 04:31N 40°52' E 029°11'0 0.0
2015-Apr-10 03:25N 40°52' E 029°11'0 0.0
2015-Apr-10 02:19N 40°52' E 029°11'0 0.0
2015-Apr-10 01:31N 40°52' E 029°11'0 0.0
2015-Apr-10 00:07N 40°52' E 029°11'0 0.0
2015-Apr-09 23:25N 40°52' E 029°11'0 0.0
2015-Apr-09 22:25N 40°52' E 029°11'0 0.0
2015-Apr-09 21:13N 40°52' E 029°11'0 0.0
2015-Apr-09 20:19N 40°52' E 029°11'0 0.0
2015-Apr-09 19:31N 40°52' E 029°11'0 0.1
2015-Apr-09 18:25N 40°52' E 029°11'0 0.0
2015-Apr-09 17:07N 40°52' E 029°11'0 0.0
2015-Apr-09 16:13N 40°52' E 029°11'0 0.0
2015-Apr-09 14:31N 40°52' E 029°11'0 0.0
2015-Apr-09 12:17N 40°52' E 029°11'0 0.0
2015-Apr-09 11:13N 40°52' E 029°11'0 0.0
2015-Apr-09 10:31N 40°52' E 029°11'0 0.0
2015-Apr-09 09:25N 40°52' E 029°11'0 0.0
2015-Apr-09 08:31N 40°52' E 029°11'0 0.0
2015-Apr-09 07:31N 40°52' E 029°11'0 0.0
2015-Apr-09 06:25N 40°52' E 029°11'0 0.0
2015-Apr-09 05:19N 40°52' E 029°11'0 0.0
2015-Apr-09 04:25N 40°52' E 029°11'0 0.0
2015-Apr-09 03:31N 40°52' E 029°11'0 0.0
2015-Apr-09 02:31N 40°52' E 029°11'0 0.0
2015-Apr-09 00:31N 40°52' E 029°11'0 0.0
2015-Apr-08 23:31N 40°52' E 029°11'0 0.0
2015-Apr-08 22:25N 40°52' E 029°11'0 0.0
2015-Apr-08 21:31N 40°52' E 029°11'0 0.0
2015-Apr-08 20:19N 40°52' E 029°11'0 0.0
2015-Apr-08 19:31N 40°52' E 029°11'0 0.0
2015-Apr-08 18:31N 40°52' E 029°11'0 0.0
2015-Apr-08 17:28N 40°52' E 029°11'0 0.0
2015-Apr-08 12:19N 40°52' E 029°11'0 0.0
2015-Apr-08 11:07N 40°52' E 029°11'0 0.0
2015-Apr-08 10:31N 40°52' E 029°11'  
Track history (hours):
 
Tides and Currents Weather Stations Pressure Air Temp Water Temp Dewpoint Dewpoint Depression Visibility Wind Speed Wind Dir Waves Ship Positions

Unlu-5

Last reported at 2015-Apr-18 10:11 UTC. Time now 2015-Apr-21 02:54 UTC.
Position N 32°41' E 014°15'.

Length 99 m; draft 6.5 m.

Type: Cargo ship. MMSI: 271000854.

Date/timePositionNaut miles runAvg speedWind from/ knotsBaromVisibWave heightAir tempDewpointWater temp
2015-Apr-18 10:11N 32°41' E 014°15'0 0.0
2015-Apr-18 09:26N 32°41' E 014°15'4 0.1
2015-Apr-16 19:10N 32°42' E 014°20'95 6.5
2015-Apr-16 04:29N 33°22' E 016°03'  
2015-Apr-13 23:20N 36°29' E 023°29'16 7.4
2015-Apr-13 21:11N 36°42' E 023°40'5 7.6
2015-Apr-13 20:33N 36°46' E 023°43'8 7.5
2015-Apr-13 19:33N 36°52' E 023°48'  
2015-Apr-10 09:21N 40°46' E 029°36'6 6.7
2015-Apr-10 08:31N 40°45' E 029°28'6 6.7
2015-Apr-10 07:33N 40°45' E 029°20'8 8.0
2015-Apr-10 06:33N 40°50' E 029°11'3 2.6
2015-Apr-10 05:31N 40°52' E 029°11'0 0.0
2015-Apr-10 04:31N 40°52' E 029°11'0 0.0
2015-Apr-10 03:25N 40°52' E 029°11'0 0.0
2015-Apr-10 02:19N 40°52' E 029°11'0 0.0
2015-Apr-10 01:31N 40°52' E 029°11'0 0.0
2015-Apr-10 00:07N 40°52' E 029°11'0 0.0
2015-Apr-09 23:25N 40°52' E 029°11'0 0.0
2015-Apr-09 22:25N 40°52' E 029°11'0 0.0
2015-Apr-09 21:13N 40°52' E 029°11'0 0.0
2015-Apr-09 20:19N 40°52' E 029°11'0 0.0
2015-Apr-09 19:31N 40°52' E 029°11'0 0.1
2015-Apr-09 18:25N 40°52' E 029°11'0 0.0
2015-Apr-09 17:07N 40°52' E 029°11'0 0.0
2015-Apr-09 16:13N 40°52' E 029°11'0 0.0
2015-Apr-09 14:31N 40°52' E 029°11'0 0.0
2015-Apr-09 12:17N 40°52' E 029°11'0 0.0
2015-Apr-09 11:13N 40°52' E 029°11'0 0.0
2015-Apr-09 10:31N 40°52' E 029°11'0 0.0
2015-Apr-09 09:25N 40°52' E 029°11'0 0.0
2015-Apr-09 08:31N 40°52' E 029°11'0 0.0
2015-Apr-09 07:31N 40°52' E 029°11'0 0.0
2015-Apr-09 06:25N 40°52' E 029°11'0 0.0
2015-Apr-09 05:19N 40°52' E 029°11'0 0.0
2015-Apr-09 04:25N 40°52' E 029°11'0 0.0
2015-Apr-09 03:31N 40°52' E 029°11'0 0.0
2015-Apr-09 02:31N 40°52' E 029°11'0 0.0
2015-Apr-09 00:31N 40°52' E 029°11'0 0.0
2015-Apr-08 23:31N 40°52' E 029°11'0 0.0
2015-Apr-08 22:25N 40°52' E 029°11'0 0.0
2015-Apr-08 21:31N 40°52' E 029°11'0 0.0
2015-Apr-08 20:19N 40°52' E 029°11'0 0.0
2015-Apr-08 19:31N 40°52' E 029°11'0 0.0
2015-Apr-08 18:31N 40°52' E 029°11'0 0.0
2015-Apr-08 17:28N 40°52' E 029°11'0 0.0
2015-Apr-08 12:19N 40°52' E 029°11'0 0.0
2015-Apr-08 11:07N 40°52' E 029°11'0 0.0
2015-Apr-08 10:31N 40°52' E 029°11'  

Dump ship's entire track history